Time;durP1;ratioP1;P1;durP2;ratioP2;P2;SDS_P1;SDS_P2;PMS_P1;PMS_P2;Temp;Humidity;BMP_temperature;BMP_pressure;BME280_temperature;BME280_humidity;BME280_pressure;Samples;Min_cycle;Max_cycle;Signal;HPM_P1;HPM_P2
2023/05/16 00:00:12;;;;;;;0.00;0.00;;;10.40;99.90;;;;;;7405763;19;20395;-79
2023/05/16 00:02:41;;;;;;;0.00;0.00;;;10.30;99.90;;;;;;7405113;19;20404;-80
2023/05/16 00:05:13;;;;;;;0.00;0.00;;;10.40;99.90;;;;;;7401073;19;19926;-79
2023/05/16 00:07:45;;;;;;;0.00;0.00;;;10.00;99.90;;;;;;7381017;19;19954;-78
2023/05/16 00:10:17;;;;;;;;;;;10.20;99.90;;;;;;7403940;19;19947;-77
2023/05/16 00:12:50;;;;;;;0.00;0.00;;;10.20;99.90;;;;;;7384886;19;19953;-77
2023/05/16 00:15:22;;;;;;;0.00;0.00;;;9.90;99.90;;;;;;7402549;19;19986;-77
2023/05/16 00:17:51;;;;;;;0.00;0.00;;;10.00;99.90;;;;;;7402629;19;19929;-77
2023/05/16 00:20:22;;;;;;;0.20;0.20;;;9.90;99.90;;;;;;7400679;19;19935;-78
2023/05/16 00:22:51;;;;;;;1.08;0.98;;;10.00;99.90;;;;;;7403703;19;19926;-78
2023/05/16 00:25:23;;;;;;;0.00;0.00;;;9.70;99.90;;;;;;7402981;19;19929;-78
2023/05/16 00:27:52;;;;;;;0.00;0.00;;;9.90;99.90;;;;;;7403075;19;19930;-78
2023/05/16 00:30:21;;;;;;;0.00;0.00;;;10.00;99.90;;;;;;7401985;19;19922;-77
2023/05/16 00:32:53;;;;;;;0.00;0.00;;;10.00;99.90;;;;;;7399838;19;20257;-78
2023/05/16 00:35:22;;;;;;;1.55;1.45;;;9.80;99.90;;;;;;7401515;19;19991;-78
2023/05/16 00:37:52;;;;;;;0.00;0.00;;;10.00;99.90;;;;;;7402943;19;19986;-78
2023/05/16 00:40:24;;;;;;;0.00;0.00;;;9.90;99.90;;;;;;7401838;19;20309;-78
2023/05/16 00:42:53;;;;;;;0.98;0.88;;;9.90;99.90;;;;;;7402420;19;19933;-77
2023/05/16 00:45:22;;;;;;;0.00;0.00;;;9.90;99.90;;;;;;7402442;19;19922;-77
2023/05/16 00:47:51;;;;;;;0.00;0.00;;;10.00;99.90;;;;;;7402618;19;20328;-77
2023/05/16 00:50:20;;;;;;;0.00;0.00;;;9.80;99.90;;;;;;7401138;19;19925;-77
2023/05/16 00:52:50;;;;;;;0.00;0.00;;;9.80;99.90;;;;;;7402927;19;19922;-77
2023/05/16 00:55:19;;;;;;;0.00;0.00;;;9.80;99.90;;;;;;7402813;19;19925;-77
2023/05/16 00:57:50;;;;;;;0.00;0.00;;;9.90;99.90;;;;;;7401551;19;20896;-78
2023/05/16 01:00:20;;;;;;;0.00;0.00;;;9.70;99.90;;;;;;7402433;19;19977;-79
2023/05/16 01:02:52;;;;;;;1.23;1.23;;;9.70;99.90;;;;;;7401843;19;19914;-76
2023/05/16 01:05:21;;;;;;;;;;;9.70;99.90;;;;;;7405187;19;19925;-77
2023/05/16 01:07:50;;;;;;;0.00;0.00;;;9.60;99.90;;;;;;7401849;19;19923;-76
2023/05/16 01:10:19;;;;;;;0.00;0.00;;;9.50;99.90;;;;;;7402791;19;19982;-76
2023/05/16 01:13:02;;;;;;;0.00;0.00;;;9.60;99.90;;;;;;7402041;19;20464;-76
2023/05/16 01:15:37;;;;;;;0.00;0.00;;;9.60;99.90;;;;;;7401856;19;19922;-79
2023/05/16 01:18:13;;;;;;;0.00;0.00;;;9.50;99.90;;;;;;7401258;19;20359;-77
2023/05/16 01:20:48;;;;;;;0.00;0.00;;;9.50;99.90;;;;;;7401623;19;19943;-77
2023/05/16 01:23:42;;;;;;;0.00;0.00;;;9.50;99.90;;;;;;7403282;19;19918;-78
2023/05/16 01:26:25;;;;;;;0.00;0.00;;;9.50;99.90;;;;;;7402667;19;19985;-77
2023/05/16 01:28:55;;;;;;;0.00;0.00;;;9.50;99.90;;;;;;7399005;19;19923;-79
2023/05/16 01:31:25;;;;;;;0.00;0.00;;;9.50;99.90;;;;;;7396216;19;19923;-79
2023/05/16 01:33:54;;;;;;;0.00;0.00;;;9.50;99.90;;;;;;7400624;19;19962;-78
2023/05/16 01:36:27;;;;;;;0.00;0.00;;;9.30;99.90;;;;;;7400196;19;19926;-78
2023/05/16 01:39:04;;;;;;;0.55;0.55;;;9.40;99.90;;;;;;7403168;19;19933;-77
2023/05/16 01:41:45;;;;;;;0.00;0.00;;;9.30;99.90;;;;;;7404059;19;19925;-79
2023/05/16 01:44:25;;;;;;;0.00;0.00;;;9.20;99.90;;;;;;7404467;19;19922;-77
2023/05/16 01:46:59;;;;;;;0.00;0.00;;;9.30;99.90;;;;;;7402400;19;19923;-78
2023/05/16 01:49:33;;;;;;;0.00;0.00;;;9.30;99.90;;;;;;7399671;19;19929;-78
2023/05/16 01:52:07;;;;;;;0.00;0.00;;;9.20;99.90;;;;;;7401887;19;20323;-76
2023/05/16 01:54:41;;;;;;;0.00;0.00;;;9.10;99.90;;;;;;7400699;19;19932;-78
2023/05/16 01:57:14;;;;;;;0.00;0.00;;;9.20;99.90;;;;;;7400029;19;19976;-77
2023/05/16 01:59:44;;;;;;;0.00;0.00;;;9.00;99.90;;;;;;7399600;19;19926;-79
2023/05/16 02:02:13;;;;;;;0.00;0.00;;;9.30;99.90;;;;;;7401354;19;19926;-78
2023/05/16 02:04:42;;;;;;;0.00;0.00;;;9.20;99.90;;;;;;7401210;19;20013;-78
2023/05/16 02:07:13;;;;;;;0.00;0.00;;;9.10;99.90;;;;;;7399427;19;19922;-78
2023/05/16 02:09:42;;;;;;;0.30;0.30;;;9.20;99.90;;;;;;7396868;19;19922;-78
2023/05/16 02:12:14;;;;;;;0.00;0.00;;;9.10;99.90;;;;;;7399432;19;19926;-78
2023/05/16 02:14:43;;;;;;;0.00;0.00;;;9.00;99.90;;;;;;7399390;19;19998;-78
2023/05/16 02:17:12;;;;;;;0.00;0.00;;;9.00;99.90;;;;;;7397808;19;20082;-78
2023/05/16 02:19:41;;;;;;;0.00;0.00;;;9.00;99.90;;;;;;7397522;19;20447;-78
2023/05/16 02:22:10;;;;;;;0.00;0.00;;;8.90;99.90;;;;;;7398683;19;19932;-78
2023/05/16 02:24:39;;;;;;;0.00;0.00;;;8.70;99.90;;;;;;7399930;19;19986;-78
2023/05/16 02:27:08;;;;;;;0.00;0.00;;;8.80;99.90;;;;;;7400297;19;19996;-78
2023/05/16 02:29:40;;;;;;;0.00;0.00;;;8.60;99.90;;;;;;7396976;19;19932;-78
2023/05/16 02:32:09;;;;;;;0.10;0.10;;;8.60;99.90;;;;;;7399109;19;19930;-78
2023/05/16 02:34:38;;;;;;;0.00;0.00;;;8.60;99.90;;;;;;7399090;19;19988;-76
2023/05/16 02:37:07;;;;;;;0.00;0.00;;;8.60;99.90;;;;;;7404227;19;19926;-76
2023/05/16 02:39:36;;;;;;;0.00;0.00;;;8.60;99.90;;;;;;7405413;19;19925;-78
2023/05/16 02:42:06;;;;;;;0.03;0.03;;;8.70;99.90;;;;;;7406331;19;19925;-76
2023/05/16 02:44:35;;;;;;;0.00;0.00;;;8.80;99.90;;;;;;7403665;19;19994;-76
2023/05/16 02:47:07;;;;;;;0.00;0.00;;;8.70;99.90;;;;;;7405169;19;19940;-77
2023/05/16 02:49:36;;;;;;;0.10;0.10;;;8.70;99.90;;;;;;7403825;19;20367;-76
2023/05/16 02:52:05;;;;;;;0.00;0.00;;;8.60;99.90;;;;;;7406133;19;20271;-76
2023/05/16 02:54:34;;;;;;;0.40;0.40;;;8.50;99.90;;;;;;7406157;19;19933;-77
2023/05/16 02:57:03;;;;;;;0.43;0.25;;;8.70;99.90;;;;;;7405442;19;19927;-77
2023/05/16 02:59:32;;;;;;;0.00;0.00;;;8.60;99.90;;;;;;7404322;19;19922;-76
2023/05/16 03:02:00;;;;;;;0.00;0.00;;;8.40;99.90;;;;;;7405102;19;19981;-76
2023/05/16 03:04:32;;;;;;;0.00;0.00;;;8.50;99.90;;;;;;7405579;19;19926;-77
2023/05/16 03:07:01;;;;;;;;;;;8.50;99.90;;;;;;7407959;19;19914;-76
2023/05/16 03:09:31;;;;;;;3.33;0.77;;;8.50;99.90;;;;;;7402083;19;19923;-77
2023/05/16 03:12:00;;;;;;;0.00;0.00;;;8.60;99.90;;;;;;7405767;19;19923;-76
2023/05/16 03:14:30;;;;;;;0.00;0.00;;;8.50;99.90;;;;;;7403935;19;19922;-77
2023/05/16 03:16:58;;;;;;;0.00;0.00;;;8.10;99.90;;;;;;7403077;19;19911;-76
2023/05/16 03:19:27;;;;;;;0.00;0.00;;;8.60;99.90;;;;;;7404781;19;20412;-77
2023/05/16 03:21:59;;;;;;;0.00;0.00;;;8.60;99.90;;;;;;7404624;19;19943;-76
2023/05/16 03:24:28;;;;;;;0.00;0.00;;;8.70;99.90;;;;;;7405428;19;19930;-77
2023/05/16 03:26:58;;;;;;;0.00;0.00;;;8.50;99.90;;;;;;7404953;19;20340;-77
2023/05/16 03:29:27;;;;;;;0.00;0.00;;;8.60;99.90;;;;;;7401664;19;19947;-77
2023/05/16 03:31:56;;;;;;;0.00;0.00;;;8.60;99.90;;;;;;7404935;19;19922;-76
2023/05/16 03:34:25;;;;;;;0.00;0.00;;;8.60;99.90;;;;;;7406349;19;19924;-77
2023/05/16 03:36:54;;;;;;;0.00;0.00;;;8.50;99.90;;;;;;7403533;19;19943;-77
2023/05/16 03:39:25;;;;;;;0.08;0.08;;;8.50;99.90;;;;;;7402822;19;19954;-77
2023/05/16 03:41:55;;;;;;;0.17;0.17;;;8.60;99.90;;;;;;7403378;19;19989;-78
2023/05/16 03:44:24;;;;;;;0.00;0.00;;;8.60;99.90;;;;;;7402953;19;19927;-77
2023/05/16 03:46:54;;;;;;;0.00;0.00;;;8.50;99.90;;;;;;7403093;19;19935;-78
2023/05/16 03:49:28;;;;;;;0.00;0.00;;;8.40;99.90;;;;;;7402040;19;19922;-77
2023/05/16 03:51:57;;;;;;;0.00;0.00;;;8.40;99.90;;;;;;7402630;19;19929;-77
2023/05/16 03:54:28;;;;;;;0.00;0.00;;;8.60;99.90;;;;;;7404507;19;19919;-77
2023/05/16 03:56:57;;;;;;;0.00;0.00;;;8.50;99.90;;;;;;7402270;19;19914;-77
2023/05/16 03:59:26;;;;;;;0.00;0.00;;;8.60;99.90;;;;;;7402442;19;19925;-77
2023/05/16 04:01:55;;;;;;;0.00;0.00;;;8.60;99.90;;;;;;7403314;19;19919;-76
2023/05/16 04:04:24;;;;;;;0.00;0.00;;;8.50;99.90;;;;;;7403249;19;19930;-75
2023/05/16 04:06:53;;;;;;;0.90;0.88;;;8.60;99.90;;;;;;7401974;19;19911;-77
2023/05/16 04:09:22;;;;;;;0.00;0.00;;;8.50;99.90;;;;;;7402566;19;19933;-77
2023/05/16 04:11:55;;;;;;;2.75;0.65;;;8.60;99.90;;;;;;7402867;19;19925;-77
2023/05/16 04:14:24;;;;;;;0.00;0.00;;;8.50;99.90;;;;;;7402776;19;19919;-77
2023/05/16 04:16:53;;;;;;;0.00;0.00;;;8.50;99.90;;;;;;7400349;19;19927;-77
2023/05/16 04:19:22;;;;;;;0.00;0.00;;;8.60;99.90;;;;;;7404249;19;19926;-78
2023/05/16 04:21:51;;;;;;;0.00;0.00;;;8.50;99.90;;;;;;7403242;19;19974;-77
2023/05/16 04:24:20;;;;;;;0.00;0.00;;;8.40;99.90;;;;;;7402864;19;19978;-77
2023/05/16 04:26:50;;;;;;;0.00;0.00;;;8.50;99.90;;;;;;7402980;19;19918;-77
2023/05/16 04:29:22;;;;;;;0.00;0.00;;;7.70;99.90;;;;;;7400044;19;20564;-77
2023/05/16 04:31:51;;;;;;;0.00;0.00;;;8.40;99.90;;;;;;7402807;19;19953;-77
2023/05/16 04:34:21;;;;;;;0.00;0.00;;;8.40;99.90;;;;;;7402254;19;19929;-77
2023/05/16 04:36:50;;;;;;;0.00;0.00;;;8.50;99.90;;;;;;7401915;19;20166;-78
2023/05/16 04:39:19;;;;;;;0.00;0.00;;;8.40;99.90;;;;;;7401637;19;19925;-77
2023/05/16 04:41:48;;;;;;;0.00;0.00;;;8.50;99.90;;;;;;7402791;19;19986;-78
2023/05/16 04:44:17;;;;;;;0.17;0.17;;;8.40;99.90;;;;;;7404365;19;19926;-78
2023/05/16 04:46:49;;;;;;;0.00;0.00;;;8.40;99.90;;;;;;7403772;19;19929;-77
2023/05/16 04:49:18;;;;;;;0.00;0.00;;;7.40;99.90;;;;;;7400784;19;20286;-77
2023/05/16 04:51:47;;;;;;;0.00;0.00;;;8.40;99.90;;;;;;7402578;19;20014;-78
2023/05/16 04:54:16;;;;;;;0.00;0.00;;;8.40;99.90;;;;;;7402420;19;19974;-77
2023/05/16 04:56:45;;;;;;;0.28;0.28;;;8.40;99.90;;;;;;7404838;19;19922;-77
2023/05/16 04:59:14;;;;;;;0.00;0.00;;;8.30;99.90;;;;;;7400685;19;20352;-76
2023/05/16 05:01:43;;;;;;;0.00;0.00;;;8.10;99.90;;;;;;7409017;19;20257;-78
2023/05/16 05:04:16;;;;;;;0.05;0.05;;;8.20;99.90;;;;;;7409643;19;19923;-78
2023/05/16 05:06:45;;;;;;;0.00;0.00;;;8.30;99.90;;;;;;7404391;19;19933;-77
2023/05/16 05:09:14;;;;;;;0.00;0.00;;;8.10;99.90;;;;;;7401094;19;19946;-76
2023/05/16 05:11:43;;;;;;;0.00;0.00;;;8.20;99.90;;;;;;7400201;19;20556;-78
2023/05/16 05:14:12;;;;;;;0.00;0.00;;;8.20;99.90;;;;;;7400995;19;19939;-77
2023/05/16 05:16:41;;;;;;;0.00;0.00;;;8.20;99.90;;;;;;7399166;19;19922;-77
2023/05/16 05:19:10;;;;;;;0.00;0.00;;;8.30;99.90;;;;;;7401635;19;19925;-78
2023/05/16 05:21:42;;;;;;;0.00;0.00;;;8.30;99.90;;;;;;7399004;19;19939;-78
2023/05/16 05:24:11;;;;;;;0.00;0.00;;;8.30;99.90;;;;;;7402687;19;20361;-78
2023/05/16 05:26:40;;;;;;;0.00;0.00;;;8.50;99.90;;;;;;7403942;19;20041;-77
2023/05/16 05:29:10;;;;;;;0.00;0.00;;;8.60;99.90;;;;;;7400423;19;20459;-76
2023/05/16 05:31:39;;;;;;;0.00;0.00;;;8.60;99.90;;;;;;7403484;19;20324;-76
2023/05/16 05:34:08;;;;;;;0.00;0.00;;;8.70;99.90;;;;;;7402836;19;19918;-77
2023/05/16 05:36:37;;;;;;;0.00;0.00;;;8.80;99.90;;;;;;7401978;19;19922;-77
2023/05/16 05:39:09;;;;;;;0.00;0.00;;;8.80;99.90;;;;;;7402140;19;19918;-77
2023/05/16 05:41:38;;;;;;;0.20;0.20;;;8.90;99.90;;;;;;7401207;19;19922;-77
2023/05/16 05:44:07;;;;;;;0.00;0.00;;;8.80;99.90;;;;;;7401963;19;19927;-77
2023/05/16 05:46:37;;;;;;;0.00;0.00;;;8.90;99.90;;;;;;7401702;19;19922;-77
2023/05/16 05:49:06;;;;;;;0.00;0.00;;;8.80;99.90;;;;;;7402093;19;19964;-77
2023/05/16 05:51:35;;;;;;;0.10;0.10;;;8.80;99.90;;;;;;7401393;19;19993;-78
2023/05/16 05:54:04;;;;;;;0.00;0.00;;;8.80;99.90;;;;;;7403036;19;19919;-76
2023/05/16 05:56:36;;;;;;;0.00;0.00;;;8.70;99.90;;;;;;7401196;19;20303;-77
2023/05/16 05:59:05;;;;;;;0.00;0.00;;;8.60;99.90;;;;;;7401433;19;19911;-76
2023/05/16 06:01:34;;;;;;;0.00;0.00;;;8.70;99.90;;;;;;7401009;19;20344;-76
2023/05/16 06:04:03;;;;;;;0.00;0.00;;;8.90;99.90;;;;;;7400631;19;19953;-77
2023/05/16 06:06:32;;;;;;;0.00;0.00;;;8.90;99.90;;;;;;7400727;19;19922;-76
2023/05/16 06:09:03;;;;;;;0.00;0.00;;;8.80;99.90;;;;;;7397834;19;19926;-76
2023/05/16 06:11:32;;;;;;;0.00;0.00;;;9.00;99.90;;;;;;7392693;19;19922;-77
2023/05/16 06:14:04;;;;;;;0.00;0.00;;;9.50;99.90;;;;;;7398279;19;19926;-77
2023/05/16 06:16:33;;;;;;;0.00;0.00;;;9.20;99.90;;;;;;7396646;19;19918;-78
2023/05/16 06:19:02;;;;;;;0.00;0.00;;;9.20;99.90;;;;;;7400130;19;20264;-76
2023/05/16 06:21:32;;;;;;;0.00;0.00;;;9.20;99.90;;;;;;7400900;19;19929;-76
2023/05/16 06:24:02;;;;;;;0.10;0.10;;;9.30;99.90;;;;;;7399690;19;19918;-76
2023/05/16 06:26:31;;;;;;;0.00;0.00;;;9.30;99.90;;;;;;7393341;19;19918;-77
2023/05/16 06:29:02;;;;;;;0.00;0.00;;;9.20;99.90;;;;;;7396877;19;19922;-76
2023/05/16 06:31:31;;;;;;;0.00;0.00;;;9.20;99.90;;;;;;7396339;19;19918;-77
2023/05/16 06:34:00;;;;;;;0.00;0.00;;;9.30;99.90;;;;;;7398792;19;19926;-77
2023/05/16 06:36:29;;;;;;;0.00;0.00;;;9.30;99.90;;;;;;7400840;19;19922;-76
2023/05/16 06:38:58;;;;;;;0.00;0.00;;;9.40;99.90;;;;;;7400989;19;19914;-77
2023/05/16 06:41:28;;;;;;;0.00;0.00;;;9.30;99.90;;;;;;7399927;19;19926;-76
2023/05/16 06:43:56;;;;;;;0.00;0.00;;;9.60;99.90;;;;;;7399570;19;19941;-76
2023/05/16 06:46:28;;;;;;;0.00;0.00;;;9.50;99.90;;;;;;7399875;19;19930;-76
2023/05/16 06:48:57;;;;;;;0.00;0.00;;;9.60;99.90;;;;;;7399171;19;19929;-77
2023/05/16 06:51:26;;;;;;;0.00;0.00;;;9.70;99.90;;;;;;7398330;19;19918;-76
2023/05/16 06:53:55;;;;;;;0.00;0.00;;;9.60;99.90;;;;;;7399302;19;20321;-77
2023/05/16 06:56:24;;;;;;;0.00;0.00;;;9.80;99.90;;;;;;7400342;19;19922;-76
2023/05/16 06:58:53;;;;;;;0.00;0.00;;;9.90;99.90;;;;;;7398024;19;20379;-77
2023/05/16 07:01:22;;;;;;;0.00;0.00;;;9.70;99.90;;;;;;7400176;19;20388;-77
2023/05/16 07:03:54;;;;;;;0.00;0.00;;;9.80;99.90;;;;;;7400947;19;19922;-77
2023/05/16 07:06:23;;;;;;;0.00;0.00;;;9.70;99.90;;;;;;7398728;19;19921;-76
2023/05/16 07:08:51;;;;;;;0.00;0.00;;;9.60;99.90;;;;;;7399626;19;19984;-76
2023/05/16 07:11:20;;;;;;;0.00;0.00;;;9.70;99.90;;;;;;7396139;19;19923;-76
2023/05/16 07:13:49;;;;;;;0.00;0.00;;;9.60;99.90;;;;;;7399013;19;19938;-76
2023/05/16 07:16:18;;;;;;;2.92;0.65;;;9.50;99.90;;;;;;7397354;19;19978;-77
2023/05/16 07:18:48;;;;;;;0.00;0.00;;;9.70;99.90;;;;;;7399630;19;19931;-77
2023/05/16 07:21:20;;;;;;;0.38;0.38;;;9.70;99.90;;;;;;7399333;19;19922;-77
2023/05/16 07:23:48;;;;;;;0.00;0.00;;;9.80;99.90;;;;;;7404938;19;20341;-76
2023/05/16 07:26:18;;;;;;;0.00;0.00;;;9.90;99.90;;;;;;7404984;19;20336;-77
2023/05/16 07:28:46;;;;;;;0.00;0.00;;;9.90;99.90;;;;;;7404355;19;19994;-75
2023/05/16 07:31:15;;;;;;;0.00;0.00;;;10.20;99.90;;;;;;7404484;19;19919;-77
2023/05/16 07:33:45;;;;;;;0.00;0.00;;;10.40;99.90;;;;;;7402958;19;20341;-76
2023/05/16 07:36:15;;;;;;;0.00;0.00;;;10.30;99.90;;;;;;7405201;19;19919;-76
2023/05/16 07:38:46;;;;;;;0.00;0.00;;;10.30;99.90;;;;;;7405281;19;20280;-76
2023/05/16 07:41:15;;;;;;;7.78;1.50;;;10.10;99.90;;;;;;7404348;19;19947;-76
2023/05/16 07:43:44;;;;;;;0.00;0.00;;;10.00;99.90;;;;;;7404573;19;19918;-78
2023/05/16 07:46:13;;;;;;;0.00;0.00;;;9.90;99.90;;;;;;7406146;19;19926;-76
2023/05/16 07:48:42;;;;;;;0.00;0.00;;;10.10;99.90;;;;;;7404692;19;19926;-75
2023/05/16 07:51:11;;;;;;;0.00;0.00;;;10.20;99.90;;;;;;7404447;19;19918;-77
2023/05/16 07:53:40;;;;;;;0.00;0.00;;;10.40;99.90;;;;;;7404294;19;20255;-76
2023/05/16 07:56:12;;;;;;;0.00;0.00;;;10.50;99.90;;;;;;7405434;19;19918;-76
2023/05/16 07:58:41;;;;;;;0.15;0.15;;;10.50;99.90;;;;;;7403677;19;19910;-77
2023/05/16 08:01:10;;;;;;;0.00;0.00;;;10.50;99.90;;;;;;7405597;19;19974;-76
2023/05/16 08:03:39;;;;;;;0.00;0.00;;;10.50;99.90;;;;;;7403982;19;19926;-76
2023/05/16 08:06:09;;;;;;;0.00;0.00;;;10.70;99.90;;;;;;7404782;19;19974;-76
2023/05/16 08:08:38;;;;;;;0.00;0.00;;;10.80;99.90;;;;;;7404988;19;19925;-76
2023/05/16 08:11:07;;;;;;;0.00;0.00;;;10.70;99.90;;;;;;7402815;19;19927;-77
2023/05/16 08:13:38;;;;;;;0.00;0.00;;;10.60;99.90;;;;;;7406427;19;20338;-77
2023/05/16 08:16:08;;;;;;;0.20;0.20;;;10.60;99.90;;;;;;7406228;19;19939;-77
2023/05/16 08:18:37;;;;;;;0.00;0.00;;;10.50;99.90;;;;;;7410991;19;20320;-76
2023/05/16 08:21:07;;;;;;;0.00;0.00;;;10.80;99.90;;;;;;7412147;19;19978;-77
2023/05/16 08:23:37;;;;;;;0.00;0.00;;;10.70;99.90;;;;;;7411417;19;19929;-77
2023/05/16 08:26:06;;;;;;;0.47;0.47;;;10.70;99.90;;;;;;7403223;19;19982;-76
2023/05/16 08:28:38;;;;;;;0.00;0.00;;;10.80;99.90;;;;;;7405057;19;19922;-77
2023/05/16 08:31:07;;;;;;;0.00;0.00;;;11.00;99.90;;;;;;7402545;19;19923;-76
2023/05/16 08:33:36;;;;;;;0.00;0.00;;;10.70;99.90;;;;;;7399540;19;19925;-77
2023/05/16 08:36:06;;;;;;;0.00;0.00;;;10.70;99.90;;;;;;7402990;19;19926;-77
2023/05/16 08:38:35;;;;;;;0.10;0.10;;;10.80;99.90;;;;;;7403152;19;19947;-77
2023/05/16 08:41:05;;;;;;;18.83;0.65;;;10.90;99.90;;;;;;7402323;19;19919;-76
2023/05/16 08:43:35;;;;;;;0.00;0.00;;;11.10;99.90;;;;;;7401353;19;19986;-76
2023/05/16 08:46:09;;;;;;;0.00;0.00;;;11.10;99.90;;;;;;7403139;19;19942;-78
2023/05/16 08:48:40;;;;;;;0.00;0.00;;;11.10;99.90;;;;;;7403012;19;20348;-76
2023/05/16 08:51:12;;;;;;;0.00;0.00;;;11.20;99.90;;;;;;7402349;19;19918;-77
2023/05/16 08:53:45;;;;;;;0.00;0.00;;;11.10;99.90;;;;;;7402506;19;20375;-76
2023/05/16 08:56:16;;;;;;;0.32;0.32;;;11.10;99.90;;;;;;7401790;19;19978;-77
2023/05/16 08:58:45;;;;;;;0.00;0.00;;;12.30;99.90;;;;;;7402536;19;19934;-78
2023/05/16 09:01:17;;;;;;;0.30;0.30;;;10.70;99.90;;;;;;7402943;19;19931;-78
2023/05/16 09:03:46;;;;;;;;;;;10.70;99.90;;;;;;7404591;19;19921;-77
2023/05/16 09:06:15;;;;;;;0.00;0.00;;;10.80;99.90;;;;;;7402468;19;19917;-78
2023/05/16 09:08:44;;;;;;;0.10;0.10;;;10.60;99.90;;;;;;7402649;19;19939;-77
2023/05/16 09:11:13;;;;;;;0.00;0.00;;;10.60;99.90;;;;;;7402261;19;19921;-77
2023/05/16 09:13:42;;;;;;;0.00;0.00;;;10.90;99.90;;;;;;7401364;19;19946;-77
2023/05/16 09:16:13;;;;;;;0.00;0.00;;;9.10;99.90;;;;;;7401706;19;19922;-77
2023/05/16 09:18:46;;;;;;;0.00;0.00;;;11.00;99.90;;;;;;7402636;19;19922;-78
2023/05/16 09:21:16;;;;;;;0.00;0.00;;;11.10;99.90;;;;;;7403829;19;19926;-77
2023/05/16 09:23:46;;;;;;;0.17;0.17;;;11.20;99.90;;;;;;7406197;19;19911;-78
2023/05/16 09:26:15;;;;;;;0.10;0.10;;;11.30;99.90;;;;;;7404006;19;19915;-77
2023/05/16 09:28:44;;;;;;;0.00;0.00;;;11.30;99.90;;;;;;7401637;19;19915;-77
2023/05/16 09:31:25;;;;;;;0.00;0.00;;;11.50;99.90;;;;;;7401567;19;20273;-77
2023/05/16 09:33:58;;;;;;;0.00;0.00;;;11.50;99.90;;;;;;7400241;19;19942;-77
2023/05/16 09:36:27;;;;;;;0.00;0.00;;;11.60;99.90;;;;;;7402951;19;19929;-77
2023/05/16 09:38:56;;;;;;;0.35;0.35;;;11.30;99.90;;;;;;7401465;19;20300;-77
2023/05/16 09:41:25;;;;;;;0.00;0.00;;;11.10;99.90;;;;;;7401785;19;19926;-77
2023/05/16 09:43:54;;;;;;;0.63;0.63;;;11.00;99.90;;;;;;7397278;19;19978;-78
2023/05/16 09:46:28;;;;;;;0.00;0.00;;;10.90;99.90;;;;;;7401907;19;19927;-78
2023/05/16 09:48:59;;;;;;;0.00;0.00;;;10.90;99.90;;;;;;7400479;19;19974;-77
2023/05/16 09:51:28;;;;;;;0.00;0.00;;;10.80;99.90;;;;;;7399961;19;19926;-77
2023/05/16 09:54:00;;;;;;;0.00;0.00;;;10.60;99.90;;;;;;7400604;19;19914;-77
2023/05/16 09:56:29;;;;;;;;;;;10.70;99.90;;;;;;7404447;19;19925;-76
2023/05/16 09:58:58;;;;;;;0.00;0.00;;;10.80;99.90;;;;;;7399026;19;19950;-76
2023/05/16 10:01:27;;;;;;;0.00;0.00;;;10.70;99.90;;;;;;7401630;19;20000;-77
2023/05/16 10:03:59;;;;;;;0.00;0.00;;;10.40;99.90;;;;;;7400297;19;20738;-77
2023/05/16 10:06:28;;;;;;;0.40;0.40;;;10.50;99.90;;;;;;7400330;19;19989;-78
2023/05/16 10:08:57;;;;;;;2.17;1.55;;;10.40;99.90;;;;;;7401250;19;19922;-74
2023/05/16 10:11:26;;;;;;;0.00;0.00;;;10.50;99.90;;;;;;7402104;19;19918;-77
2023/05/16 10:13:55;;;;;;;0.00;0.00;;;10.40;99.90;;;;;;7397763;19;19978;-76
2023/05/16 10:16:25;;;;;;;0.00;0.00;;;10.40;99.90;;;;;;7399137;19;19958;-76
2023/05/16 10:18:55;;;;;;;0.00;0.00;;;10.60;99.90;;;;;;7400447;19;19922;-77
2023/05/16 10:21:30;;;;;;;0.00;0.00;;;10.60;99.90;;;;;;7400792;19;19919;-76
2023/05/16 10:24:03;;;;;;;0.00;0.00;;;10.70;99.90;;;;;;7400379;19;19914;-78
2023/05/16 10:26:34;;;;;;;0.00;0.00;;;10.80;99.90;;;;;;7400574;19;19925;-78
2023/05/16 10:29:03;;;;;;;0.00;0.00;;;10.90;99.90;;;;;;7400881;19;19922;-79
2023/05/16 10:31:33;;;;;;;0.00;0.00;;;10.90;99.90;;;;;;7400046;19;20404;-77
2023/05/16 10:34:02;;;;;;;0.00;0.00;;;10.90;99.90;;;;;;7399845;19;19917;-79
2023/05/16 10:36:34;;;;;;;0.00;0.00;;;11.10;99.90;;;;;;7399673;19;19990;-78
2023/05/16 10:39:03;;;;;;;0.00;0.00;;;11.30;99.90;;;;;;7400168;19;19918;-78
2023/05/16 10:41:34;;;;;;;0.00;0.00;;;11.60;99.90;;;;;;7400647;19;19923;-78
2023/05/16 10:44:03;;;;;;;0.00;0.00;;;11.70;99.90;;;;;;7399093;19;19978;-81
2023/05/16 10:46:33;;;;;;;0.00;0.00;;;12.00;99.90;;;;;;7380855;19;20352;-80
2023/05/16 10:49:21;;;;;;;0.00;0.00;;;12.20;99.90;;;;;;7399605;19;19974;-83
2023/05/16 10:52:06;;;;;;;1.65;0.80;;;12.50;99.90;;;;;;7401603;19;19914;-83
2023/05/16 10:54:40;;;;;;;0.00;0.00;;;12.30;99.90;;;;;;7401151;19;19923;-84
2023/05/16 10:57:14;;;;;;;0.00;0.00;;;11.30;99.90;;;;;;7402866;19;19922;-85
2023/05/16 10:59:45;;;;;;;0.00;0.00;;;10.80;99.90;;;;;;7409347;19;19943;-83
2023/05/16 11:02:25;;;;;;;0.00;0.00;;;10.50;99.90;;;;;;7408076;19;19915;-84
2023/05/16 11:04:58;;;;;;;0.00;0.00;;;10.30;99.90;;;;;;7407166;19;20363;-77
2023/05/16 11:07:37;;;;;;;0.00;0.00;;;12.10;99.90;;;;;;7406909;19;19925;-78
2023/05/16 11:10:10;;;;;;;0.13;0.13;;;10.50;99.90;;;;;;7405777;19;19929;-80
2023/05/16 11:12:44;;;;;;;0.00;0.00;;;10.90;99.90;;;;;;7403581;19;19919;-82
2023/05/16 11:15:21;;;;;;;0.00;0.00;;;11.20;99.90;;;;;;7404443;19;19922;-81
2023/05/16 11:17:51;;;;;;;0.00;0.00;;;11.10;99.90;;;;;;7405525;19;19918;-81
2023/05/16 11:20:32;;;;;;;0.00;0.00;;;11.00;99.90;;;;;;7406761;19;19922;-81
2023/05/16 11:23:27;;;;;;;3.30;1.65;;;10.40;99.90;;;;;;7404580;19;20593;-80
2023/05/16 11:25:59;;;;;;;0.03;0.03;;;10.20;99.90;;;;;;7403661;19;19982;-81
2023/05/16 11:28:29;;;;;;;0.00;0.00;;;10.30;99.90;;;;;;7408195;19;19921;-79
2023/05/16 11:31:04;;;;;;;1.75;1.25;;;10.50;99.90;;;;;;7408001;19;19926;-81
2023/05/16 11:33:35;;;;;;;0.43;0.43;;;10.80;99.90;;;;;;7412359;19;20066;-81
2023/05/16 11:36:06;;;;;;;0.00;0.00;;;11.00;99.90;;;;;;7415691;19;19938;-81
2023/05/16 11:38:42;;;;;;;3.70;1.20;;;10.60;99.90;;;;;;7407692;19;19925;-81
2023/05/16 11:41:11;;;;;;;0.00;0.00;;;11.20;99.90;;;;;;7411568;19;20320;-82
2023/05/16 11:43:42;;;;;;;0.00;0.00;;;11.10;99.90;;;;;;7418076;19;19935;-81
2023/05/16 11:46:14;;;;;;;0.30;0.30;;;11.30;99.90;;;;;;7404356;19;19935;-81
2023/05/16 11:48:45;;;;;;;;;;;11.50;99.90;;;;;;7408498;19;20020;-81
2023/05/16 11:51:17;;;;;;;0.00;0.00;;;11.80;99.90;;;;;;7408568;19;20350;-80
2023/05/16 11:53:49;;;;;;;0.10;0.10;;;11.60;99.90;;;;;;7404978;19;19922;-80
2023/05/16 11:56:18;;;;;;;0.00;0.00;;;11.60;99.90;;;;;;7405301;19;19930;-81
2023/05/16 11:58:47;;;;;;;0.00;0.00;;;11.60;99.90;;;;;;7405265;19;19923;-83
2023/05/16 12:01:16;;;;;;;0.85;0.85;;;11.90;99.90;;;;;;7406181;19;19978;-81
2023/05/16 12:03:45;;;;;;;0.00;0.00;;;12.30;99.90;;;;;;7406126;19;19927;-82
2023/05/16 12:06:16;;;;;;;0.00;0.00;;;12.40;99.90;;;;;;7404846;19;19938;-81
2023/05/16 12:08:54;;;;;;;0.00;0.00;;;12.30;99.90;;;;;;7404578;19;19958;-82
2023/05/16 12:11:25;;;;;;;0.00;0.00;;;12.30;99.90;;;;;;7403085;19;19923;-82
2023/05/16 12:13:54;;;;;;;0.00;0.00;;;12.50;99.90;;;;;;7406508;19;20338;-82
2023/05/16 12:16:24;;;;;;;0.00;0.00;;;12.70;99.90;;;;;;7404024;19;19946;-82
2023/05/16 12:18:53;;;;;;;0.00;0.00;;;12.80;99.90;;;;;;7407556;19;20334;-82
2023/05/16 12:21:22;;;;;;;0.00;0.00;;;12.90;99.90;;;;;;7406139;19;19921;-83
2023/05/16 12:23:57;;;;;;;0.00;0.00;;;12.90;99.90;;;;;;7403726;19;19929;-83
2023/05/16 12:26:30;;;;;;;0.00;0.00;;;12.80;99.90;;;;;;7405003;19;19978;-82
2023/05/16 12:29:02;;;;;;;0.00;0.00;;;12.90;99.90;;;;;;7403280;19;19931;-82
2023/05/16 12:31:31;;;;;;;0.00;0.00;;;12.90;99.90;;;;;;7404042;19;19923;-82
2023/05/16 12:34:01;;;;;;;0.00;0.00;;;12.70;99.90;;;;;;7405042;19;19952;-82
2023/05/16 12:36:34;;;;;;;0.00;0.00;;;12.50;99.90;;;;;;7409388;19;19910;-82
2023/05/16 12:39:06;;;;;;;2.92;1.75;;;12.20;99.90;;;;;;7404650;19;20022;-82
2023/05/16 12:41:34;;;;;;;0.35;0.35;;;12.40;99.90;;;;;;7408315;19;19922;-82
2023/05/16 12:44:16;;;;;;;0.00;0.00;;;12.50;99.90;;;;;;7406237;19;19931;-82
2023/05/16 12:46:47;;;;;;;0.00;0.00;;;12.80;99.90;;;;;;7407250;19;19935;-82
2023/05/16 12:49:16;;;;;;;3.78;0.75;;;13.00;99.90;;;;;;7410741;19;19918;-81
2023/05/16 12:51:51;;;;;;;0.00;0.00;;;13.40;99.90;;;;;;7427336;19;19919;-82
2023/05/16 12:54:24;;;;;;;0.00;0.00;;;13.30;99.90;;;;;;7408753;19;19919;-82
2023/05/16 12:56:53;;;;;;;0.00;0.00;;;13.20;99.90;;;;;;7401705;19;19923;-82
2023/05/16 12:59:22;;;;;;;0.30;0.30;;;12.80;99.90;;;;;;7401851;19;19946;-81
2023/05/16 13:01:51;;;;;;;0.00;0.00;;;12.60;99.90;;;;;;7405120;19;19930;-81
2023/05/16 13:04:21;;;;;;;0.00;0.00;;;12.40;99.90;;;;;;7400923;19;19915;-81
2023/05/16 13:06:50;;;;;;;0.00;0.00;;;12.30;99.90;;;;;;7403677;19;20269;-81
2023/05/16 13:09:22;;;;;;;0.00;0.00;;;12.70;99.90;;;;;;7401618;19;19918;-81